Time;durP1;ratioP1;P1;durP2;ratioP2;P2;SDS_P1;SDS_P2;PMS_P1;PMS_P2;Temp;Humidity;BMP_temperature;BMP_pressure;BME280_temperature;BME280_humidity;BME280_pressure;Samples;Min_cycle;Max_cycle;Signal;HPM_P1;HPM_P2
2024/01/16 00:01:16;;;;;;;14.30;13.20;;;-0.20;99.90;;;;;;5035663;28;20495;-79
2024/01/16 00:03:44;;;;;;;13.80;12.70;;;-0.20;99.90;;;;;;5043807;28;20532;-79
2024/01/16 00:06:12;;;;;;;14.20;13.20;;;-0.20;99.90;;;;;;5024771;28;20450;-79
2024/01/16 00:08:39;;;;;;;13.60;12.60;;;-0.10;99.90;;;;;;5035329;28;20485;-79
2024/01/16 00:11:05;;;;;;;14.10;13.10;;;-0.10;99.90;;;;;;5037635;28;20469;-79
2024/01/16 00:13:33;;;;;;;14.40;13.30;;;-0.10;99.90;;;;;;5036440;28;20508;-79
2024/01/16 00:16:02;;;;;;;14.20;13.10;;;-0.10;99.90;;;;;;5032785;28;20439;-79
2024/01/16 00:18:29;;;;;;;13.93;12.80;;;-0.10;99.90;;;;;;5035301;28;20445;-79
2024/01/16 00:20:55;;;;;;;13.97;12.97;;;-0.10;99.90;;;;;;5036235;28;20431;-80
2024/01/16 00:23:23;;;;;;;13.87;12.77;;;-0.20;99.90;;;;;;5036070;28;20797;-79
2024/01/16 00:25:50;;;;;;;13.97;12.87;;;-0.10;99.90;;;;;;5036002;28;20200;-79
2024/01/16 00:28:19;;;;;;;13.27;12.40;;;-0.10;99.90;;;;;;5034046;28;20474;-79
2024/01/16 00:30:46;;;;;;;14.20;13.00;;;-0.10;99.90;;;;;;5032322;28;20456;-79
2024/01/16 00:33:13;;;;;;;13.80;12.60;;;-0.10;99.90;;;;;;5033334;28;20833;-79
2024/01/16 00:35:40;;;;;;;14.00;13.00;;;-0.10;99.90;;;;;;5035827;28;20928;-79
2024/01/16 00:38:07;;;;;;;13.93;12.93;;;-0.10;99.90;;;;;;5047368;28;20462;-79
2024/01/16 00:40:35;;;;;;;13.63;12.63;;;-0.10;99.90;;;;;;5050470;28;20518;-79
2024/01/16 00:43:02;;;;;;;13.67;12.57;;;-0.10;99.90;;;;;;5028771;28;20253;-76
2024/01/16 00:45:28;;;;;;;13.33;12.23;;;-0.20;99.90;;;;;;5020970;28;20440;-76
2024/01/16 00:47:55;;;;;;;12.87;11.97;;;-0.20;99.90;;;;;;5031439;28;20889;-76
2024/01/16 00:50:24;;;;;;;13.70;12.70;;;-0.20;99.90;;;;;;5030984;28;20472;-76
2024/01/16 00:52:51;;;;;;;13.90;12.90;;;-0.20;99.90;;;;;;5025627;28;20441;-76
2024/01/16 00:55:17;;;;;;;13.40;12.40;;;-0.20;99.90;;;;;;5046356;28;20439;-76
2024/01/16 00:57:45;;;;;;;13.13;12.13;;;-0.10;99.90;;;;;;5023336;28;20527;-77
2024/01/16 01:00:13;;;;;;;13.67;12.63;;;-0.10;99.90;;;;;;5031391;28;20425;-76
2024/01/16 01:02:39;;;;;;;12.97;12.10;;;-0.10;99.90;;;;;;5017550;28;20617;-76
2024/01/16 01:05:08;;;;;;;13.43;12.43;;;-0.10;99.90;;;;;;5027533;28;20500;-76
2024/01/16 01:07:35;;;;;;;14.07;12.93;;;-0.20;99.90;;;;;;5027522;28;20505;-76
2024/01/16 01:10:02;;;;;;;13.83;12.73;;;-0.10;99.90;;;;;;5031360;28;20560;-76
2024/01/16 01:12:29;;;;;;;13.53;12.63;;;-0.10;99.90;;;;;;5030021;28;20445;-77
2024/01/16 01:14:57;;;;;;;14.07;12.87;;;-0.10;99.90;;;;;;5043018;28;20497;-76
2024/01/16 01:17:24;;;;;;;13.40;12.50;;;-0.20;99.90;;;;;;5032642;28;20476;-79
2024/01/16 01:19:51;;;;;;;13.93;12.93;;;-0.10;99.90;;;;;;5048383;28;20457;-79
2024/01/16 01:22:18;;;;;;;13.83;12.83;;;-0.10;99.90;;;;;;5021500;28;20444;-79
2024/01/16 01:24:44;;;;;;;13.83;12.73;;;-0.10;99.90;;;;;;5040957;28;20457;-79
2024/01/16 01:27:11;;;;;;;14.30;13.03;;;-0.20;99.90;;;;;;5026691;28;20475;-77
2024/01/16 01:29:38;;;;;;;13.57;12.53;;;-0.20;99.90;;;;;;5046473;28;20472;-76
2024/01/16 01:32:07;;;;;;;13.57;12.57;;;-0.20;99.90;;;;;;5031135;28;20534;-76
2024/01/16 01:34:34;;;;;;;13.07;12.17;;;-0.20;99.90;;;;;;5033831;28;20512;-76
2024/01/16 01:37:01;;;;;;;13.57;12.57;;;-0.20;99.90;;;;;;5029892;28;20510;-76
2024/01/16 01:39:28;;;;;;;13.80;12.80;;;-0.20;99.90;;;;;;5032713;28;20528;-76
2024/01/16 01:41:55;;;;;;;13.23;12.17;;;-0.20;99.90;;;;;;5022956;28;20511;-76
2024/01/16 01:44:25;;;;;;;12.77;11.80;;;-0.20;99.90;;;;;;5016068;28;20444;-76
2024/01/16 01:46:55;;;;;;;13.47;12.10;;;-0.20;99.90;;;;;;5033794;28;20472;-76
2024/01/16 01:49:23;;;;;;;12.73;11.83;;;-0.20;99.90;;;;;;5030148;28;20477;-77
2024/01/16 01:51:50;;;;;;;12.87;12.00;;;-0.20;99.90;;;;;;5025204;28;20443;-76
2024/01/16 01:54:18;;;;;;;13.80;12.67;;;-0.20;99.90;;;;;;5042959;28;20446;-76
2024/01/16 01:56:47;;;;;;;13.00;12.10;;;-0.20;99.90;;;;;;5026820;28;20484;-76
2024/01/16 01:59:14;;;;;;;13.27;12.27;;;-0.20;99.90;;;;;;5022806;28;20468;-76
2024/01/16 02:01:42;;;;;;;12.63;11.77;;;-0.20;99.90;;;;;;5023607;28;20440;-76
2024/01/16 02:04:10;;;;;;;13.30;12.20;;;-0.20;99.90;;;;;;5022489;28;20478;-76
2024/01/16 02:06:38;;;;;;;12.77;11.87;;;-0.20;99.90;;;;;;5039743;28;20470;-76
2024/01/16 02:09:06;;;;;;;12.57;11.67;;;-0.20;99.90;;;;;;5025827;28;20489;-76
2024/01/16 02:11:33;;;;;;;13.57;12.47;;;-0.20;99.90;;;;;;5020443;28;20492;-77
2024/01/16 02:14:00;;;;;;;12.13;11.40;;;-0.20;99.90;;;;;;5034367;28;21005;-76
2024/01/16 02:16:27;;;;;;;13.30;12.20;;;-0.20;99.90;;;;;;5041489;28;20456;-76
2024/01/16 02:18:54;;;;;;;12.83;11.90;;;-0.20;99.90;;;;;;5025676;28;20941;-79
2024/01/16 02:21:22;;;;;;;13.50;12.43;;;-0.20;99.90;;;;;;5027125;28;20436;-79
2024/01/16 02:23:51;;;;;;;13.07;11.90;;;-0.20;99.90;;;;;;5042244;28;21030;-79
2024/01/16 02:26:19;;;;;;;13.27;12.30;;;-0.20;99.90;;;;;;5035117;28;20449;-79
2024/01/16 02:28:45;;;;;;;12.93;11.87;;;-0.20;99.90;;;;;;5038745;28;20431;-79
2024/01/16 02:31:12;;;;;;;13.90;12.80;;;-0.20;99.90;;;;;;5033035;28;20450;-78
2024/01/16 02:33:39;;;;;;;11.97;11.23;;;-0.20;99.90;;;;;;5047323;28;20502;-79
2024/01/16 02:36:06;;;;;;;13.60;12.27;;;-0.20;99.90;;;;;;5046348;28;20995;-79
2024/01/16 02:38:34;;;;;;;12.90;11.90;;;-0.20;99.90;;;;;;5034719;28;21010;-79
2024/01/16 02:41:02;;;;;;;13.40;12.40;;;-0.20;99.90;;;;;;5041475;28;20453;-76
2024/01/16 02:43:28;;;;;;;13.17;12.07;;;-0.30;99.90;;;;;;5033072;28;20487;-76
2024/01/16 02:45:55;;;;;;;13.20;12.07;;;-0.30;99.90;;;;;;5029539;28;20438;-77
2024/01/16 02:48:22;;;;;;;12.63;11.73;;;-0.30;99.90;;;;;;5045547;28;20509;-79
2024/01/16 02:50:49;;;;;;;12.50;11.60;;;-0.30;99.90;;;;;;5025444;28;20480;-79
2024/01/16 02:53:16;;;;;;;12.50;11.70;;;-0.20;99.90;;;;;;5029145;28;20437;-79
2024/01/16 02:55:43;;;;;;;12.60;11.60;;;-0.30;99.90;;;;;;5037300;28;20469;-78
2024/01/16 02:58:11;;;;;;;13.17;12.23;;;-0.30;99.90;;;;;;5051540;28;20488;-79
2024/01/16 03:00:38;;;;;;;11.77;10.97;;;-0.30;99.90;;;;;;5038997;28;20428;-78
2024/01/16 03:03:05;;;;;;;11.90;11.00;;;-0.40;99.90;;;;;;5033558;28;20473;-79
2024/01/16 03:05:32;;;;;;;13.07;12.07;;;-0.50;99.90;;;;;;5036351;28;20530;-79
2024/01/16 03:07:59;;;;;;;13.00;12.00;;;-0.50;99.90;;;;;;5049548;28;20898;-79
2024/01/16 03:10:26;;;;;;;12.40;11.50;;;-0.60;99.90;;;;;;5049073;28;20483;-79
2024/01/16 03:12:52;;;;;;;12.67;11.57;;;-0.60;99.90;;;;;;5028114;28;20446;-79
2024/01/16 03:15:22;;;;;;;12.93;11.83;;;-0.70;99.90;;;;;;5029274;28;20940;-79
2024/01/16 03:17:49;;;;;;;12.57;11.57;;;-0.80;99.90;;;;;;5051104;28;20469;-78
2024/01/16 03:20:16;;;;;;;12.63;11.63;;;-0.80;99.90;;;;;;5045400;28;20481;-78
2024/01/16 03:22:44;;;;;;;12.47;11.57;;;-0.90;99.90;;;;;;5033608;28;20463;-79
2024/01/16 03:25:12;;;;;;;12.73;11.73;;;-0.90;99.90;;;;;;5044169;28;20446;-78
2024/01/16 03:27:39;;;;;;;13.03;12.03;;;-1.00;99.90;;;;;;5026894;28;20469;-79
2024/01/16 03:30:08;;;;;;;13.27;11.90;;;-1.10;99.90;;;;;;5033256;28;20508;-79
2024/01/16 03:32:36;;;;;;;12.93;11.83;;;-1.10;99.90;;;;;;5036431;28;20450;-79
2024/01/16 03:35:03;;;;;;;12.77;11.80;;;-1.20;99.90;;;;;;5030339;28;20452;-78
2024/01/16 03:37:30;;;;;;;12.60;11.70;;;-1.20;99.90;;;;;;5036399;28;20830;-79
2024/01/16 03:39:57;;;;;;;12.57;11.67;;;-1.30;99.90;;;;;;5036071;28;20441;-78
2024/01/16 03:42:23;;;;;;;12.50;11.70;;;-1.40;99.90;;;;;;5034943;28;21073;-79
2024/01/16 03:44:51;;;;;;;12.60;11.67;;;-1.40;99.90;;;;;;5043853;28;20986;-79
2024/01/16 03:47:18;;;;;;;13.63;12.60;;;-1.50;99.90;;;;;;5028165;28;20471;-79
2024/01/16 03:49:46;;;;;;;13.03;12.03;;;-1.50;99.90;;;;;;5028004;28;20472;-78
2024/01/16 03:52:13;;;;;;;13.40;12.37;;;-1.60;99.90;;;;;;5030845;28;20490;-76
2024/01/16 03:54:40;;;;;;;13.33;12.30;;;-1.60;99.90;;;;;;5028647;28;20494;-77
2024/01/16 03:57:07;;;;;;;12.70;11.80;;;-1.60;99.90;;;;;;5026500;28;20475;-77
2024/01/16 03:59:34;;;;;;;13.03;11.73;;;-1.70;99.90;;;;;;5031391;28;20455;-77
2024/01/16 04:02:03;;;;;;;12.60;11.57;;;-1.80;99.90;;;;;;5031122;28;20870;-77
2024/01/16 04:04:30;;;;;;;12.40;11.37;;;-1.80;99.90;;;;;;5031129;28;20903;-77
2024/01/16 04:06:58;;;;;;;12.63;11.67;;;-1.80;99.90;;;;;;5030919;28;20519;-74
2024/01/16 04:09:24;;;;;;;12.50;11.60;;;-1.90;99.90;;;;;;5032198;28;20460;-77
2024/01/16 04:11:51;;;;;;;12.50;11.60;;;-1.90;99.90;;;;;;5024412;28;20440;-77
2024/01/16 04:14:18;;;;;;;12.83;11.73;;;-2.00;99.90;;;;;;5046011;28;20448;-77
2024/01/16 04:16:45;;;;;;;12.70;11.80;;;-2.00;99.90;;;;;;5030322;28;20468;-77
2024/01/16 04:19:12;;;;;;;12.33;11.33;;;-2.00;99.90;;;;;;5027682;28;20455;-77
2024/01/16 04:21:39;;;;;;;12.33;11.40;;;-2.10;99.90;;;;;;5026285;28;20965;-77
2024/01/16 04:24:07;;;;;;;13.10;12.00;;;-2.10;99.90;;;;;;5028690;28;20442;-77
2024/01/16 04:26:36;;;;;;;12.50;11.60;;;-2.20;99.90;;;;;;5027454;28;20517;-77
2024/01/16 04:29:04;;;;;;;12.20;11.40;;;-2.10;99.90;;;;;;5021370;28;20436;-77
2024/01/16 04:31:31;;;;;;;12.70;11.70;;;-2.10;99.90;;;;;;5020927;28;20531;-77
2024/01/16 04:33:57;;;;;;;12.07;11.17;;;-2.20;99.90;;;;;;5029360;28;20436;-82
2024/01/16 04:36:25;;;;;;;12.07;11.20;;;-2.10;99.90;;;;;;5025241;28;20454;-77
2024/01/16 04:38:51;;;;;;;11.77;10.97;;;-2.20;99.90;;;;;;5032244;28;20436;-76
2024/01/16 04:41:20;;;;;;;12.00;11.10;;;-2.10;99.90;;;;;;5030290;28;20462;-77
2024/01/16 04:43:47;;;;;;;11.87;10.77;;;-2.20;99.90;;;;;;5032462;28;20463;-78
2024/01/16 04:46:15;;;;;;;12.23;11.30;;;-2.20;99.90;;;;;;5046326;28;20451;-77
2024/01/16 04:48:42;;;;;;;12.90;11.90;;;-2.20;99.90;;;;;;5048426;28;20900;-78
2024/01/16 04:51:09;;;;;;;12.37;11.47;;;-2.20;99.90;;;;;;5027742;28;20528;-76
2024/01/16 04:53:36;;;;;;;12.83;11.73;;;-2.20;99.90;;;;;;5025752;28;20466;-77
2024/01/16 04:56:03;;;;;;;12.00;10.97;;;-2.20;99.90;;;;;;5039195;28;20843;-77
2024/01/16 04:58:31;;;;;;;12.33;11.43;;;-2.20;99.90;;;;;;5043151;28;20520;-78
2024/01/16 05:00:58;;;;;;;12.90;11.90;;;-2.20;99.90;;;;;;5023658;28;20485;-77
2024/01/16 05:03:25;;;;;;;12.40;11.53;;;-2.20;99.90;;;;;;5044759;28;20439;-78
2024/01/16 05:05:51;;;;;;;13.07;12.07;;;-2.20;99.90;;;;;;5032085;28;20451;-78
2024/01/16 05:08:18;;;;;;;12.40;11.60;;;-2.20;99.90;;;;;;5041891;28;20478;-77
2024/01/16 05:10:46;;;;;;;12.70;11.80;;;-2.20;99.90;;;;;;5041103;28;21055;-77
2024/01/16 05:13:13;;;;;;;12.83;11.90;;;-2.30;99.90;;;;;;5030907;28;20443;-77
2024/01/16 05:15:42;;;;;;;12.60;11.60;;;-2.20;99.90;;;;;;5035442;28;20445;-77
2024/01/16 05:18:09;;;;;;;13.50;12.20;;;-2.30;99.90;;;;;;5034165;28;20480;-77
2024/01/16 05:20:36;;;;;;;12.93;11.93;;;-2.30;99.90;;;;;;5032355;28;20501;-78
2024/01/16 05:23:04;;;;;;;13.67;12.40;;;-2.30;99.90;;;;;;5047536;28;20448;-77
2024/01/16 05:25:31;;;;;;;13.20;12.20;;;-2.30;99.90;;;;;;5025158;28;20443;-77
2024/01/16 05:27:58;;;;;;;13.57;12.47;;;-2.40;99.90;;;;;;5032126;28;20460;-78
2024/01/16 05:30:24;;;;;;;13.73;12.77;;;-2.40;99.90;;;;;;5032370;28;20491;-77
2024/01/16 05:32:53;;;;;;;12.77;11.67;;;-2.40;99.90;;;;;;5026279;28;20487;-78
2024/01/16 05:35:20;;;;;;;12.77;11.77;;;-2.40;99.90;;;;;;5032104;28;20470;-78
2024/01/16 05:37:47;;;;;;;12.57;11.47;;;-2.50;99.90;;;;;;5044417;28;20472;-77
2024/01/16 05:40:14;;;;;;;14.23;13.03;;;-2.40;99.90;;;;;;5028954;28;20525;-77
2024/01/16 05:42:41;;;;;;;13.93;12.83;;;-2.40;99.90;;;;;;5030402;28;20440;-77
2024/01/16 05:45:09;;;;;;;12.97;11.90;;;-2.40;99.90;;;;;;5047624;28;20508;-77
2024/01/16 05:47:36;;;;;;;13.47;12.47;;;-2.40;99.90;;;;;;5033604;28;20466;-77
2024/01/16 05:50:05;;;;;;;13.03;12.07;;;-2.40;99.90;;;;;;5036401;28;20540;-78
2024/01/16 05:52:31;;;;;;;13.77;12.67;;;-2.40;99.90;;;;;;5022216;28;20446;-78
2024/01/16 05:54:59;;;;;;;16.83;15.03;;;-2.40;99.90;;;;;;5034425;28;20512;-77
2024/01/16 05:57:26;;;;;;;23.17;18.20;;;-2.40;99.90;;;;;;5048011;28;21023;-78
2024/01/16 05:59:53;;;;;;;38.13;26.17;;;-2.40;99.90;;;;;;5033233;28;20478;-78
2024/01/16 06:02:20;;;;;;;26.30;20.47;;;-2.40;99.90;;;;;;5035312;28;20955;-78
2024/01/16 06:04:47;;;;;;;19.03;17.13;;;-2.40;99.90;;;;;;5035101;28;20442;-76
2024/01/16 06:07:15;;;;;;;16.07;14.87;;;-2.40;99.90;;;;;;5034208;28;20451;-78
2024/01/16 06:09:42;;;;;;;15.37;14.07;;;-2.50;99.90;;;;;;5047634;28;20503;-77
2024/01/16 06:12:09;;;;;;;15.47;14.17;;;-2.40;99.90;;;;;;5047684;28;20886;-78
2024/01/16 06:14:36;;;;;;;14.93;13.63;;;-2.40;99.90;;;;;;5050801;28;20438;-77
2024/01/16 06:17:05;;;;;;;15.00;13.90;;;-2.40;99.90;;;;;;5050657;28;20468;-78
2024/01/16 06:19:32;;;;;;;15.50;14.10;;;-2.40;99.90;;;;;;5033850;28;20533;-78
2024/01/16 06:21:59;;;;;;;14.43;13.10;;;-2.40;99.90;;;;;;5028429;28;20442;-78
2024/01/16 06:24:27;;;;;;;13.77;12.80;;;-2.40;99.90;;;;;;5034295;28;20784;-77
2024/01/16 06:26:54;;;;;;;13.87;12.77;;;-2.50;99.90;;;;;;5023501;28;20454;-78
2024/01/16 06:29:21;;;;;;;14.03;12.97;;;-2.50;99.90;;;;;;5033578;28;20498;-77
2024/01/16 06:31:48;;;;;;;15.13;13.73;;;-2.50;99.90;;;;;;5027507;28;20478;-77
2024/01/16 06:34:14;;;;;;;14.33;13.33;;;-2.50;99.90;;;;;;5032527;28;20489;-75
2024/01/16 06:36:41;;;;;;;14.27;13.20;;;-2.50;99.90;;;;;;5027420;28;20531;-75
2024/01/16 06:39:08;;;;;;;14.63;13.67;;;-2.50;99.90;;;;;;5032430;28;20485;-75
2024/01/16 06:41:36;;;;;;;14.57;13.30;;;-2.50;99.90;;;;;;5033525;28;20470;-75
2024/01/16 06:44:03;;;;;;;14.43;13.30;;;-2.50;99.90;;;;;;5044168;28;20443;-75
2024/01/16 06:46:30;;;;;;;15.03;13.60;;;-2.50;99.90;;;;;;5049225;28;20472;-75
2024/01/16 06:48:57;;;;;;;14.50;13.30;;;-2.60;99.90;;;;;;5029263;28;20436;-75
2024/01/16 06:51:24;;;;;;;15.57;14.07;;;-2.60;99.90;;;;;;5023659;28;20825;-75
2024/01/16 06:53:50;;;;;;;15.73;14.40;;;-2.70;99.90;;;;;;5025822;28;20466;-75
2024/01/16 06:56:16;;;;;;;14.80;13.60;;;-2.60;99.90;;;;;;5033637;28;20445;-74
2024/01/16 06:58:44;;;;;;;14.73;13.53;;;-2.60;99.90;;;;;;5035255;28;20434;-75
2024/01/16 07:01:14;;;;;;;14.30;13.13;;;-2.70;99.90;;;;;;5057511;28;20206;-74
2024/01/16 07:03:40;;;;;;;14.83;13.50;;;-2.60;99.90;;;;;;5051466;28;20411;-75
2024/01/16 07:06:07;;;;;;;14.17;13.07;;;-2.60;99.90;;;;;;5059165;28;20453;-75
2024/01/16 07:08:34;;;;;;;14.70;13.50;;;-2.60;99.90;;;;;;5074908;28;20443;-75
2024/01/16 07:11:01;;;;;;;14.33;13.13;;;-2.50;99.90;;;;;;5054415;28;20470;-76
2024/01/16 07:13:27;;;;;;;13.90;12.90;;;-2.50;99.90;;;;;;5026920;28;20443;-75
2024/01/16 07:15:56;;;;;;;15.13;13.73;;;-2.60;99.90;;;;;;5048619;28;20450;-75
2024/01/16 07:18:22;;;;;;;14.30;13.20;;;-2.60;99.90;;;;;;5027702;28;20471;-78
2024/01/16 07:20:49;;;;;;;14.77;13.47;;;-2.70;99.90;;;;;;5034860;28;20512;-78
2024/01/16 07:23:16;;;;;;;14.43;13.13;;;-2.70;99.90;;;;;;5029094;28;20438;-77
2024/01/16 07:25:43;;;;;;;13.40;12.40;;;-2.70;99.90;;;;;;5034059;28;20431;-78
2024/01/16 07:28:10;;;;;;;13.93;12.70;;;-2.80;99.90;;;;;;5036997;28;20922;-78
2024/01/16 07:30:36;;;;;;;15.20;13.90;;;-2.80;99.90;;;;;;5027512;28;20494;-77
2024/01/16 07:33:05;;;;;;;15.30;13.93;;;-2.90;99.90;;;;;;5026288;28;20945;-77
2024/01/16 07:35:32;;;;;;;15.83;14.33;;;-2.90;99.90;;;;;;5025111;28;20502;-77
2024/01/16 07:37:58;;;;;;;16.53;14.87;;;-2.80;99.90;;;;;;5033520;28;20508;-78
2024/01/16 07:40:25;;;;;;;15.00;13.60;;;-2.80;99.90;;;;;;5026177;28;20961;-77
2024/01/16 07:42:52;;;;;;;14.87;13.57;;;-2.80;99.90;;;;;;5032861;28;20473;-77
2024/01/16 07:45:19;;;;;;;15.07;13.90;;;-2.90;99.90;;;;;;5032006;28;20470;-77
2024/01/16 07:47:47;;;;;;;13.70;12.57;;;-2.80;99.90;;;;;;5015766;28;20467;-77
2024/01/16 07:50:15;;;;;;;13.80;12.73;;;-2.80;99.90;;;;;;5029017;28;20522;-77
2024/01/16 07:52:42;;;;;;;14.23;13.03;;;-2.80;99.90;;;;;;5044044;28;20503;-77
2024/01/16 07:55:09;;;;;;;14.23;13.03;;;-2.80;99.90;;;;;;5025621;28;20441;-77
2024/01/16 07:57:40;;;;;;;14.60;13.30;;;-2.70;99.90;;;;;;5033338;28;20490;-80
2024/01/16 08:00:11;;;;;;;15.27;13.97;;;-2.70;99.90;;;;;;5033467;28;20522;-78
2024/01/16 08:02:42;;;;;;;14.17;12.90;;;-2.60;99.90;;;;;;5026258;28;21238;-80
2024/01/16 08:05:09;;;;;;;14.73;13.43;;;-2.60;99.90;;;;;;5029892;28;20444;-79
2024/01/16 08:07:38;;;;;;;13.53;12.43;;;-2.50;99.90;;;;;;5033789;28;20475;-79
2024/01/16 08:10:06;;;;;;;13.93;12.83;;;-2.40;99.90;;;;;;5036695;28;20446;-79
2024/01/16 08:12:32;;;;;;;13.53;12.53;;;-2.30;99.90;;;;;;5035494;28;20482;-79
2024/01/16 08:14:59;;;;;;;14.30;13.17;;;-2.20;99.90;;;;;;5037603;28;20497;-79
2024/01/16 08:17:26;;;;;;;13.70;12.70;;;-2.20;99.90;;;;;;5036545;28;20524;-79
2024/01/16 08:19:53;;;;;;;14.17;12.97;;;-2.10;99.90;;;;;;5043612;28;20454;-79
2024/01/16 08:22:20;;;;;;;14.07;13.00;;;-2.00;99.90;;;;;;5030519;28;20494;-78
2024/01/16 08:24:48;;;;;;;13.40;12.30;;;-2.00;99.90;;;;;;5043896;28;20451;-77
2024/01/16 08:27:16;;;;;;;13.77;12.77;;;-2.00;99.90;;;;;;5026213;28;20482;-77
2024/01/16 08:29:42;;;;;;;13.77;12.67;;;-1.90;99.90;;;;;;5044496;28;21070;-77
2024/01/16 08:32:09;;;;;;;13.20;12.20;;;-1.90;99.90;;;;;;5020955;28;20476;-77
2024/01/16 08:34:36;;;;;;;14.20;13.10;;;-1.80;99.90;;;;;;5026029;28;20443;-77
2024/01/16 08:37:04;;;;;;;14.10;13.03;;;-1.70;99.90;;;;;;5026745;28;20869;-78
2024/01/16 08:39:33;;;;;;;13.97;12.83;;;-1.70;99.90;;;;;;5029500;28;20493;-79
2024/01/16 08:42:02;;;;;;;13.37;12.33;;;-1.60;99.90;;;;;;5028598;28;20431;-79
2024/01/16 08:44:29;;;;;;;14.00;12.70;;;-1.60;99.90;;;;;;5020764;28;20853;-79
2024/01/16 08:46:57;;;;;;;13.43;12.33;;;-1.60;99.90;;;;;;5031524;28;20541;-78
2024/01/16 08:49:24;;;;;;;13.87;12.87;;;-1.50;99.90;;;;;;5029916;28;20450;-78
2024/01/16 08:51:51;;;;;;;13.70;12.70;;;-1.40;99.90;;;;;;5029766;28;20478;-79
2024/01/16 08:54:18;;;;;;;14.00;12.90;;;-1.30;99.90;;;;;;5041479;28;20962;-80
2024/01/16 08:56:44;;;;;;;14.40;13.23;;;-1.30;99.90;;;;;;5033408;28;20524;-80
2024/01/16 08:59:13;;;;;;;13.60;12.50;;;-1.20;99.90;;;;;;5031705;28;20430;-80
2024/01/16 09:01:41;;;;;;;13.87;12.77;;;-1.10;99.90;;;;;;5028774;28;20454;-79
2024/01/16 09:04:08;;;;;;;14.53;13.37;;;-1.00;99.90;;;;;;5033026;28;20440;-80
2024/01/16 09:06:35;;;;;;;13.87;12.77;;;-0.90;99.90;;;;;;5030066;28;20461;-80
2024/01/16 09:09:04;;;;;;;13.50;12.50;;;-0.70;99.90;;;;;;5050232;28;20443;-80
2024/01/16 09:11:31;;;;;;;14.10;12.90;;;-0.60;99.90;;;;;;5034117;28;20481;-79
2024/01/16 09:13:58;;;;;;;13.60;12.50;;;-0.40;99.90;;;;;;5031334;28;20458;-80
2024/01/16 09:16:26;;;;;;;14.97;13.80;;;-0.10;99.90;;;;;;5034508;28;20463;-79
2024/01/16 09:18:54;;;;;;;14.03;12.93;;;0.00;99.90;;;;;;5034540;28;20453;-80
2024/01/16 09:21:21;;;;;;;14.33;13.13;;;0.00;99.90;;;;;;5031170;28;20455;-79
2024/01/16 09:23:48;;;;;;;14.77;13.33;;;0.20;99.90;;;;;;5049814;28;20505;-79
2024/01/16 09:26:15;;;;;;;14.20;12.90;;;0.20;99.90;;;;;;5047583;28;20447;-79
2024/01/16 09:28:41;;;;;;;14.00;12.90;;;0.30;99.90;;;;;;5034234;28;20528;-79
2024/01/16 09:31:08;;;;;;;13.47;12.27;;;0.40;99.90;;;;;;5052286;28;20475;-79
2024/01/16 09:33:36;;;;;;;14.50;13.20;;;0.50;99.90;;;;;;5052249;28;20445;-80
2024/01/16 09:36:04;;;;;;;14.33;13.13;;;0.50;99.90;;;;;;5035186;28;20723;-80
2024/01/16 09:38:31;;;;;;;13.80;12.73;;;0.40;99.90;;;;;;5052132;28;20467;-80
2024/01/16 09:40:59;;;;;;;14.47;13.27;;;0.40;99.90;;;;;;5036506;28;20644;-80
2024/01/16 09:43:28;;;;;;;13.80;12.50;;;0.50;99.90;;;;;;5034190;28;20438;-80
2024/01/16 09:45:56;;;;;;;13.70;12.70;;;0.60;99.90;;;;;;5031592;28;20434;-79
2024/01/16 09:48:23;;;;;;;14.13;13.00;;;0.60;99.90;;;;;;5019726;28;21004;-83
2024/01/16 09:50:51;;;;;;;14.43;13.33;;;0.80;99.90;;;;;;5037361;28;20457;-84
2024/01/16 09:53:19;;;;;;;14.20;13.10;;;0.80;99.90;;;;;;5049423;28;20220;-79
2024/01/16 09:55:47;;;;;;;14.57;13.37;;;0.80;99.90;;;;;;5030994;28;20294;-80
2024/01/16 09:58:14;;;;;;;14.80;13.60;;;0.70;99.90;;;;;;5033330;28;20224;-78
2024/01/16 10:00:44;;;;;;;13.80;12.70;;;0.70;99.90;;;;;;5031665;28;20936;-77
2024/01/16 10:03:13;;;;;;;14.03;13.00;;;0.70;99.90;;;;;;5032770;28;20454;-78
2024/01/16 10:05:43;;;;;;;13.30;12.30;;;0.60;99.90;;;;;;5020404;28;20210;-77
2024/01/16 10:08:14;;;;;;;14.23;13.20;;;0.50;99.90;;;;;;5034461;28;20486;-81
2024/01/16 10:10:41;;;;;;;13.17;12.20;;;0.40;99.90;;;;;;5029316;28;20492;-78
2024/01/16 10:13:08;;;;;;;14.17;13.07;;;0.30;99.90;;;;;;5027443;28;20493;-78
2024/01/16 10:15:35;;;;;;;13.67;12.37;;;0.20;99.90;;;;;;5029427;28;20869;-79
2024/01/16 10:18:02;;;;;;;14.03;12.83;;;0.20;99.90;;;;;;5026136;28;20528;-78
2024/01/16 10:20:34;;;;;;;13.33;12.43;;;0.20;99.90;;;;;;5046355;28;20249;-77
2024/01/16 10:23:00;;;;;;;14.20;13.07;;;0.20;99.90;;;;;;5031226;28;20433;-77
2024/01/16 10:25:28;;;;;;;14.23;13.13;;;0.20;99.90;;;;;;5023360;28;20443;-77
2024/01/16 10:28:04;;;;;;;14.20;13.10;;;0.10;99.90;;;;;;5021555;28;20906;-77
2024/01/16 10:30:32;;;;;;;14.50;13.23;;;0.10;99.90;;;;;;5043706;28;20454;-77
2024/01/16 10:33:14;;;;;;;14.63;13.33;;;0.10;99.90;;;;;;5036469;28;20477;-77
2024/01/16 10:35:41;;;;;;;13.80;12.70;;;0.10;99.90;;;;;;5053145;28;20491;-78
2024/01/16 10:38:08;;;;;;;14.37;13.37;;;0.10;99.90;;;;;;5025149;28;20962;-78
2024/01/16 10:40:36;;;;;;;14.23;13.13;;;0.10;99.90;;;;;;5047343;28;20458;-78
2024/01/16 10:43:04;;;;;;;14.37;13.27;;;0.20;99.90;;;;;;5028050;28;20432;-77
2024/01/16 10:45:32;;;;;;;16.10;14.80;;;0.20;99.90;;;;;;5023783;28;20446;-78
2024/01/16 10:48:03;;;;;;;15.27;13.87;;;0.30;99.90;;;;;;5035252;28;20472;-77
2024/01/16 10:50:30;;;;;;;15.67;14.27;;;0.30;99.90;;;;;;5040411;28;20516;-78
2024/01/16 10:53:00;;;;;;;14.77;13.57;;;0.20;99.90;;;;;;5029138;28;20898;-78
2024/01/16 10:55:30;;;;;;;14.43;13.10;;;0.10;99.90;;;;;;5029539;28;20858;-78
2024/01/16 10:58:00;;;;;;;14.27;13.07;;;0.20;99.90;;;;;;5050363;28;20515;-78
2024/01/16 11:00:29;;;;;;;14.40;13.23;;;0.30;99.90;;;;;;5034582;28;20441;-78
2024/01/16 11:03:02;;;;;;;14.80;13.70;;;0.40;99.90;;;;;;5050422;28;20441;-78
2024/01/16 11:05:33;;;;;;;15.43;14.13;;;0.50;99.90;;;;;;5028657;28;20945;-78
2024/01/16 11:08:03;;;;;;;14.23;13.07;;;0.50;99.90;;;;;;5045481;28;20469;-78
2024/01/16 11:10:31;;;;;;;14.87;13.67;;;0.60;99.90;;;;;;5035059;28;20481;-78
2024/01/16 11:13:02;;;;;;;14.67;13.47;;;0.60;99.90;;;;;;5047211;28;20494;-78
2024/01/16 11:15:29;;;;;;;15.90;14.50;;;0.60;99.90;;;;;;5020592;28;20502;-78
2024/01/16 11:17:57;;;;;;;15.53;14.43;;;0.70;99.90;;;;;;5030513;28;20482;-78
2024/01/16 11:20:25;;;;;;;15.83;14.37;;;0.80;99.90;;;;;;5029920;28;20496;-78
2024/01/16 11:22:55;;;;;;;16.23;14.83;;;0.80;99.90;;;;;;5034886;28;20474;-78
2024/01/16 11:25:31;;;;;;;15.83;14.47;;;0.80;99.90;;;;;;5031081;28;20438;-78
2024/01/16 11:28:11;;;;;;;15.63;14.33;;;0.70;99.90;;;;;;5031646;28;20813;-79
2024/01/16 11:30:38;;;;;;;15.37;14.10;;;0.80;99.90;;;;;;5026039;28;20457;-78
2024/01/16 11:33:04;;;;;;;15.53;14.27;;;0.80;99.90;;;;;;5029120;28;20474;-77
2024/01/16 11:35:36;;;;;;;15.30;14.00;;;0.90;99.90;;;;;;5030809;28;20481;-76
2024/01/16 11:38:09;;;;;;;14.97;13.80;;;1.00;99.90;;;;;;5038781;28;20233;-76
2024/01/16 11:40:35;;;;;;;15.63;14.20;;;1.00;99.90;;;;;;5027455;28;20447;-75
2024/01/16 11:43:44;;;;;;;15.00;13.83;;;1.00;99.90;;;;;;5014936;28;20192;-75
2024/01/16 11:46:12;;;;;;;15.00;13.60;;;1.00;99.90;;;;;;4994068;28;20204;-76
2024/01/16 11:48:39;;;;;;;14.20;13.00;;;0.90;99.90;;;;;;5044444;28;20447;-76
2024/01/16 11:51:24;;;;;;;14.97;13.70;;;0.90;99.90;;;;;;5023429;28;20456;-76
2024/01/16 11:53:51;;;;;;;15.03;13.80;;;0.90;99.90;;;;;;5032451;28;20991;-76
2024/01/16 11:56:48;;;;;;;14.70;13.50;;;1.00;99.90;;;;;;5032432;28;20860;-76
2024/01/16 11:59:43;;;;;;;15.27;13.87;;;1.00;99.90;;;;;;5026119;28;20640;-76
2024/01/16 12:02:19;;;;;;;14.67;13.57;;;1.00;99.90;;;;;;5028198;28;20866;-76
2024/01/16 12:04:54;;;;;;;14.93;13.53;;;1.00;99.90;;;;;;5035919;28;20446;-76
2024/01/16 12:07:20;;;;;;;16.07;14.47;;;1.00;99.90;;;;;;5032287;28;20217;-76
2024/01/16 12:09:47;;;;;;;14.30;13.30;;;1.00;99.90;;;;;;5031135;28;20450;-75
2024/01/16 12:12:18;;;;;;;15.63;14.27;;;1.00;99.90;;;;;;5024229;28;20467;-76
2024/01/16 12:14:53;;;;;;;15.40;14.07;;;1.00;99.90;;;;;;5023607;28;20432;-76
2024/01/16 12:17:21;;;;;;;14.40;13.30;;;1.10;99.90;;;;;;5030032;28;20887;-76
2024/01/16 12:19:49;;;;;;;15.03;13.80;;;1.10;99.90;;;;;;5039013;28;20453;-76
2024/01/16 12:22:18;;;;;;;14.40;13.30;;;1.10;99.90;;;;;;5025638;28;20447;-76
2024/01/16 12:24:45;;;;;;;13.47;12.57;;;1.10;99.90;;;;;;5025643;28;20469;-76
2024/01/16 12:27:12;;;;;;;13.90;12.80;;;1.20;99.90;;;;;;5031006;28;20450;-76
2024/01/16 12:29:41;;;;;;;14.43;13.30;;;1.20;99.90;;;;;;5031871;28;20933;-76
2024/01/16 12:32:09;;;;;;;14.17;13.07;;;1.20;99.90;;;;;;5031555;28;20478;-76
2024/01/16 12:34:45;;;;;;;12.93;12.03;;;1.30;99.90;;;;;;5031513;28;20283;-76